Kirtland AFB, New Mexico
Current Conditions -  °F | °C
As of 1:52 PM on Monday 24 Nov 2014 (Local Time) from KABQ Reporting Station
Scattered Clouds Scattered Clouds  
Wind Chill: 38°   Ceiling: Unl
Heat Index: 45°   Visibility: 10mi
Dew Point:   Wind: 17mph
Humidity: 20%   Direction: 330°NNW
Pressure: 30.09"   Gusts: 32mph
Location:  35.03°N, 106.56°W
Report Text: KABQ 242052Z 33015G28KT 10SM SCT085 SCT130 07/M14 A3009 RMK AO2 PK WND 31028/2043 SLP184 T00721144 56022
Loading
Personal Weather Stations






























Interactive Weather Map New forecast layout! Learn more

10-Day Weather Forecast

Advertisements
Track Severe Weather on mobile